Florida AWOS List, Phone Numbers

USA |  
| Search AWOS

Rocky Mountain States: Montana | Wyoming | Colorado | New Mexico

Complete weather reports: Florida

Legend: KFNL = METAR available Follow your local AWOS on AV Mobile = METAR available on AV Mobile
Station Florida Location Frequency Phone
KAQQICAO ID KAQQ Apalachicola, Apalachicola
KAAFFAA ID AAF, ASOS, KAAF 212253Z AUTO 28003KT 10SM CLR 24/17 A2993 Follow KAAF on AV Mobile APALACHICOLA MUNICIPAL AIRPORT 119.925 850-653-8271
KNAEICAO ID KNAE Astor, Bombing Range Detachment Astor
KAVOFAA ID AVO, AWOS-3 AVON PARK 118.725 863-453-4223
KAGRFAA ID AGR Avon Park Gunnery Range
KBOWFAA ID BOW, AWOS-3, KBOW 212335Z AUTO 00000KT 10SM SCT055 24/20 A2994 RMK AO2 Follow KBOW on AV Mobile Bartow Municipal 123.775 863-533-9004
F95FAA ID F95, AWOS-AV, K2V5 220000Z AUTO 15009KT 10SM CLR 24/05 A2988 RMK AO2 LTG DSNT W T02350046 Follow  on AV Mobile BLOUNTSTOWN 119.350 850-674-1347
KBCTFAA ID BCT, AWOS-3, KBCT 212255Z 16003KT 10SM CLR 23/21 A2994 Follow KBCT on AV Mobile Boca Raton, Boca Raton Airport 121.125 561-391-2696
K1J0FAA ID 1J0, K1J0 081758Z AUTO 04003KT 10SM CLR 30/19 A3013 RMK AO2 SLP160 T03000194 10300 20178 58017 Follow K1J0 on AV Mobile TRI COUNTY AIRPORT
KBKVFAA ID BKV, ASOS, KBKV 212253Z AUTO 33003KT 10SM CLR 24/18 A2994 RMK AO2 SLP136 T02440183 Follow KBKV on AV Mobile BROOKSVILLE HERNANDO CO AIRPORT 134.725 352-799-5881
K1J4ICAO ID K1J4 Cape San Blas Coast Guard Station
KNZCICAO ID KNZC Cecil, Naval Air Station
2ISFAA ID 2IS, AWOS-3, K2V5 220000Z AUTO 15009KT 10SM CLR 24/05 A2988 RMK AO2 LTG DSNT W T02350046 Follow  on AV Mobile CLEWISTON 124.175 863-983-7020
KX53ICAO ID KX53 Clewiston
KCOFFAA ID COF, KCOF 212258Z AUTO 19008KT 10SM CLR 25/21 A2992 RMK AO2 CIG 031 RWY02 SLP136 T02510213 Follow KCOF on AV Mobile Cocoa / Patrick Air Force Base
KXMRFAA ID XMR, KXMR 212313Z AUTO 17009KT 10SM CLR 25/21 A2991 RMK AO2 Follow KXMR on AV Mobile Cocoa Beach, Cape Canaveral Air Force Station Skid Strip
KCEWFAA ID CEW, ASOS, KCEW 212253Z AUTO 00000KT 10SM CLR 24/13 A2997 Follow KCEW on AV Mobile CRESTVIEW SIKES AIRPORT 119.275 850-682-1237
KEGIFAA ID EGI, KEGI 212257Z 34002KT 10SM FEW250 24/11 A2995 RMK AO2A SLP144 T02420113 $ Follow KEGI on AV Mobile Duke Field / Eglin Auxiliary
KCTYFAA ID CTY, KCTY 212253Z AUTO 24004KT 24/19 A2991 Follow KCTY on AV Mobile CROSS CITY AIRPORT
KCGCFAA ID CGC, AWOS-3, KCGC 212335Z AUTO 00000KT 10SM CLR 22/20 A2994 RMK AO2 PWINO Follow KCGC on AV Mobile CRYSTAL RIVER 118.325 352-563-6600
KDABFAA ID DAB, ASOS, KDAB 212253Z 00000KT 10SM FEW027 BKN200 24/21 A2993 Follow KDAB on AV Mobile DAYTONA BEACH INTERNATIONAL 386-253-7469
54JFAA ID 54J, AWOS-3P, K2V5 220000Z AUTO 15009KT 10SM CLR 24/05 A2988 RMK AO2 LTG DSNT W T02350046 Follow  on AV Mobile DEFUNIAK SPRINGS 118.725 850-892-0147
KDEDFAA ID DED, AWOS-3, KDED 212335Z AUTO 00000KT 10SM CLR 23/21 A2995 RMK AO1 Follow KDED on AV Mobile DELAND 119.575 386-740-5811
KDTSFAA ID DTS, ASOS, KDTS 212253Z AUTO VRB03KT 10SM CLR 24/14 A2994 RMK AO2 SLP139 T02390144 TSNO Follow KDTS on AV Mobile DESTIN-FT WALTON BEACH AIRPORT 133.925 850-654-7128
KX91ICAO ID KX91 Egmont Key Coast Guard Station
KFHBFAA ID FHB, AWOS-3, KFHB 212335Z AUTO 00000KT 10SM CLR 24/20 A2991 RMK AO1 Follow KFHB on AV Mobile FERNANDINA BEACH 118.075 904-277-7323
KFXEFAA ID FXE, ASOS, KFXE 212253Z 00000KT 10SM CLR 23/19 A2994 Follow KFXE on AV Mobile FORT LAUDERDALE EXECUTIVE 954-772-2537
KFLLFAA ID FLL, ASOS, KFLL 212253Z 36005KT 10SM FEW027 SCT120 OVC250 24/20 A2993 Follow KFLL on AV Mobile FORT LAUDERDALE/HOLLYWOOD 954-359-7857
KFMYFAA ID FMY, ASOS, KFMY 212253Z 25003KT 10SM SCT100 26/21 A2992 RMK AO2 SLP134 T02560211 Follow KFMY on AV Mobile FORT MYERS PAGE FIELD 239-936-2318
KRSWFAA ID RSW, ASOS, KRSW 212253Z 00000KT 10SM FEW110 25/21 A2993 Follow KRSW on AV Mobile FORT MYERS SW FL INTERNATIONAL AIRPORT 239-561-0966
KX82ICAO ID KX82 Fort Pierce Coast Guard Station
KFPRFAA ID FPR, ASOS, KFPR 212253Z 20005KT 10SM CLR 22/20 A2993 Follow KFPR on AV Mobile FORT PIERCE ST LUCIE 772-489-4281
KX86ICAO ID KX86 Fowey Rocks Coast Guard Station
KX89ICAO ID KX89 Ft. Myers Beach Coast Guard Station
KGNVFAA ID GNV, ASOS, KGNV 212253Z 00000KT 10SM CLR 22/18 A2991 Follow KGNV on AV Mobile GAINESVILLE REGIONAL AIRPORT 352-335-8672
KHWOFAA ID HWO, ASOS, KHWO 212253Z 35006KT 10SM FEW110 24/20 A2995 RMK AO2 SLP142 T02390200 Follow KHWO on AV Mobile HOLLYWOOD NORTH PERRY AIRPORT 954-983-5904
X51FAA ID X51, AWOS-3, K2V5 220000Z AUTO 15009KT 10SM CLR 24/05 A2988 RMK AO2 LTG DSNT W T02350046 Follow  on AV Mobile HOMESTEAD 118.375 (305) 247-2791
KHSTFAA ID HST, KHST 212258Z AUTO 35002KT 10SM CLR 24/22 A2993 RMK AO2 RAB2227E2240DZB2222E2243 SLP138 P0000 T02400218 Follow KHST on AV Mobile Homestead Air Force Base
KIMMFAA ID IMM, AWOS-3, KIMM 212355Z AUTO 00000KT 9SM FEW018 23/23 A2996 RMK A01 P000 Follow KIMM on AV Mobile IMMOKALEE 118.525 239-657-2038
KINFFAA ID INF, AWOS-3, KINF 212335Z AUTO 00000KT 10SM CLR 21/20 A2994 RMK AO2 Follow KINF on AV Mobile INVERNESS 119.975 352-341-0264
KX84ICAO ID KX84 Islamorada Coast Guard Station
KHEGFAA ID HEG, AWOS-3 JACKSONVILLE 119.275 904-695-0334
KCRGFAA ID CRG, ASOS, KCRG 212253Z 00000KT 10SM CLR 23/19 A2991 RMK AO2 SLP127 T02330189 Follow KCRG on AV Mobile JACKSONVILLE CRAIG MUN 904-646-4670
KJAXFAA ID JAX, ASOS, KJAX 212256Z 00000KT 10SM FEW050 FEW200 22/18 A2990 Follow KJAX on AV Mobile JACKSONVILLE INTERNATIONAL 904-741-4304
KNIPFAA ID NIP, KNIP 212353Z 16007KT 10SM SCT250 26/19 A2993 RMK AO2 SLP132 T02610189 10300 20261 53007 Follow KNIP on AV Mobile JACKSONVILLE NAVAL AIR STN
KVQQFAA ID VQQ, AWOS-3, KVQQ 212350Z 00000KT 10SM CLR 19/18 A2993 Follow KVQQ on AV Mobile Jacksonville, Cecil Field Airport 125.275 904-778-6934
KNENFAA ID NEN NOLF WHITEHOUSE FIELD, FL
KX80ICAO ID KX80 Jupiter Inlet Coast Guard Station
KEYWFAA ID EYW, ASOS, KEYW 212253Z 00000KT 10SM CLR 26/23 A2991 Follow KEYW on AV Mobile KEY WEST INTERNATIONAL AIRPORT 119.65 305-292-4046
KNQXFAA ID NQX, KNQX 212253Z 14003KT 10SM SCT040 BKN070 OVC100 24/22 A2991 RMK AO2 SLP126 T02390222 $ Follow KNQX on AV Mobile KEY WEST NAVAL AIR STATION
K42JFAA ID 42J, AWOS-3, K42J 212335Z AUTO 00000KT 10SM 20/19 A2993 RMK AO1 TSNO Follow K42J on AV Mobile KEYSTONE HEIGHTS 124.275 352-473-8273
KLCQFAA ID LCQ, AWOS-3, KLCQ 212335Z AUTO 00000KT 10SM CLR 19/17 A2993 RMK AO2 Follow KLCQ on AV Mobile LAKE CITY 120.675 386-754-9366
X07FAA ID X07, AWOS-3, K2V5 220000Z AUTO 15009KT 10SM CLR 24/05 A2988 RMK AO2 LTG DSNT W T02350046 Follow  on AV Mobile LAKE WALES 124.225 863-678-1334
KX81ICAO ID KX81 Lake Worth Inlet
KLALFAA ID LAL, AWOS-3PT, KLAL 212254Z 00000KT 12SM FEW060 OVC200 24/20 A2993 Follow KLAL on AV Mobile Lakeland Regional 118.025 863-834-2030
KLEEFAA ID LEE, ASOS, KLEE 212253Z AUTO 00000KT 10SM CLR 24/19 A2993 RMK AO2 SLP133 T02390194 Follow KLEE on AV Mobile LEESBURG REGIONAL AIRPORT 134.325 352-787-1565
24JFAA ID 24J, AWOS-3, K2V5 220000Z AUTO 15009KT 10SM CLR 24/05 A2988 RMK AO2 LTG DSNT W T02350046 Follow  on AV Mobile LIVE OAK 118.225 386-362-1731
KX88ICAO ID KX88 Marathon Coast Guard Station
KMTHFAA ID MTH, ASOS, KMTH 212253Z AUTO 00000KT 10SM BKN120 24/23 A2991 RMK AO2 SLP128 T02390233 Follow KMTH on AV Mobile MARATHON AIRPORT 135.525 305-743-8373
KMKYFAA ID MKY, AWOS-3, KMKY 171335Z AUTO 03008KT 10SM CLR 22/13 A3000 RMK AO1 Follow KMKY on AV Mobile MARCO ISLAND 120.075 239-394-8187
KMAIFAA ID MAI, ASOS, KMAI 212253Z AUTO 29003KT 10SM CLR 24/13 A2993 RMK AO2 SLP135 T02390133 Follow KMAI on AV Mobile MARIANNA MUNICIPAL AIRPORT 133.525 850-482-6082
KHRTFAA ID HRT, KHRT 212258Z AUTO 25003KT 10SM CLR 24/13 A2994 RMK AO2 SLP140 T02350128 RVRNO $ Follow KHRT on AV Mobile Hurlburt Field
KNRBFAA ID NRB, KNRB 212352Z 19003KT 10SM FEW250 22/18 A2993 RMK AO2 SLP133 T02170183 10267 20217 53004 Follow KNRB on AV Mobile MAYPORT NAVAL AIR FACILITY
KMLBFAA ID MLB, ASOS, KMLB 212253Z 19006KT 10SM FEW037 25/21 A2992 Follow KMLB on AV Mobile MELBOURNE INTERNATIONAL 321-723-7403
KCOIFAA ID COI, AWOS-3 Merritt Island, Merritt Island Airport 119.025 321-986-8864
KTNTFAA ID TNT, AWOS-3 MIAMI 119.075 (239) 695-9198
KX87ICAO ID KX87 Miami Beach Coast Guard Station
KAMXICAO ID KAMX Miami Nexrad
KTMBFAA ID TMB, ASOS, KTMB 212253Z 02005KT 10SM -RA FEW095 25/22 A2994 Follow KTMB on AV Mobile KENDALL-TAMIAMI EXEC AIRPORT 305-235-1332
KMIAFAA ID MIA, ASOS, KMIA 212253Z 35004KT 10SM FEW015 BKN110 OVC250 25/21 A2993 Follow KMIA on AV Mobile MIAMI INTERNATIONAL AIRPORT 305-870-0235
KOPFFAA ID OPF, KOPF 212253Z 35005KT 10SM FEW020 BKN110 25/21 A2994 Follow KOPF on AV Mobile MIAMI OPA LOCKA AIRPORT
KNFJFAA ID NFJ CHOCTAW, WHITING FIELD, NOLF
KNSEFAA ID NSE, KNSE 212256Z 00000KT 10SM FEW010 23/11 A2996 RMK AO2 SLP131 FU FEW010 FU NE-SE T02280111 $ Follow KNSE on AV Mobile MILTON WHITING FIELD (NORTH)
KNDZFAA ID NDZ, KNDZ 212256Z COR 01005KT 10SM FEW010 24/11 A2996 RMK AO2 SLP131 FU FU FEW010 NE-SE T02390111 $ Follow KNDZ on AV Mobile MILTON WHITING FIELD (SOUTH)
KAPFFAA ID APF, ASOS, KAPF 212253Z 10004KT 10SM CLR 25/21 A2992 Follow KAPF on AV Mobile NAPLES MUNICIPAL AIRPORT 239-643-9886
KRRFICAO ID KRRF New Port Richey, Tampa Bay Executive Airport
KEVBFAA ID EVB, AWOS-3, KEVB 212350Z 00000KT 10SM SCT100 23/20 A2994 Follow KEVB on AV Mobile New Smyrna Beach, New Smyrna Beach Municipal Airport 124.625 386-409-4705
KOCFFAA ID OCF, AWOS-3, KOCF 212250Z 00000KT 10SM CLR 22/17 A2993 Follow KOCF on AV Mobile Ocala, Ocala International Airport-Jim Taylor Field 128.125 352-237-8525
KOBEFAA ID OBE, AWOS-3, KOBE 212335Z AUTO 21/20 A2994 RMK AO2 PWINO Follow KOBE on AV Mobile Okeechobee County Airport 118.675 863-467-1148
KORLFAA ID ORL, ASOS, KORL 212307Z 35004KT 10SM FEW002 27/20 A2992 RMK AO2 T02720200 Follow KORL on AV Mobile ORLANDO EXECUTIVE AIRPORT 407-658-6753
KMCOFAA ID MCO, ASOS, KMCO 212353Z 05006KT 10SM SCT041 OVC260 24/22 A2994 RMK AO2 SLP136 T02440217 10283 20244 53010 Follow KMCO on AV Mobile ORLANDO INTERNATIONAL AIRPORT 407-855-5235
KSFBFAA ID SFB, ASOS, KSFB 212253Z 09004KT 10SM FEW041 SCT050 25/22 A2992 Follow KSFB on AV Mobile ORLANDO SANFORD AIRPORT 407-321-9384
KISMFAA ID ISM, AWOS-3, KISM 212250Z 00000KT 10SM FEW040 OVC180 26/22 A2992 Follow KISM on AV Mobile Orlando, Kissimmee Municipal Airport 128.775 407-847-0533
KOMNFAA ID OMN, AWOS-3, KOMN 212250Z 00000KT 10SM SKC 24/21 A2992 RMK LAST Follow KOMN on AV Mobile Ormond Beach, Ormond Beach Municipal Airport 118.475 386-615-7084
28JFAA ID 28J, AWOS-3, K2V5 220000Z AUTO 15009KT 10SM CLR 24/05 A2988 RMK AO2 LTG DSNT W T02350046 Follow  on AV Mobile PALATKA 119.92 386-312-2212
KXFLFAA ID XFL, AWOS-3, KXFL 212335Z AUTO 00000KT 22/20 A2993 RMK AO2 T02200203 PWINO Follow KXFL on AV Mobile PALM COAST 128.325 386-437-7334
KECPFAA ID ECP, ASOS, KECP 212253Z 31004KT 10SM CLR 23/14 A2993 Follow KECP on AV Mobile PANAMA CITY 119.975 850-235-7857
KPFNICAO ID KPFN, KPFN 030253Z VRB03KT 10SM FEW023 25/23 A2989 Follow KPFN on AV Mobile PANAMA CITY-BAY CTY INTERNATIONAL
KPAMFAA ID PAM, KPAM 212258Z AUTO 30005KT 10SM CLR 23/15 A2994 RMK AO2 SLP142 T02320153 $ Follow KPAM on AV Mobile Tyndall Air Force Base
KPNSFAA ID PNS, ASOS, KPNS 212253Z 00000KT 10SM CLR 24/12 A2995 Follow KPNS on AV Mobile PENSACOLA REGIONAL AIRPORT 850-436-4799
KNPAFAA ID NPA, KNPA 212256Z 26004KT 10SM CLR 22/13 A2995 RMK AO2 SLP143 T02220133 Follow KNPA on AV Mobile Pensacola, Naval Air Station
K40JFAA ID 40J, AWOS-3PT, K40J 212335Z AUTO 00000KT 10SM CLR 20/16 A2994 RMK AO2 Follow K40J on AV Mobile PERRY-FOLEY AIRPORT 118.375 850-838-3526
FA54FAA ID FA54, Belfort CORAL CREEK
KPCMFAA ID PCM, AWOS-3, KPCM 212335Z AUTO 00000KT 10SM CLR 24/21 A2995 RMK AO2 Follow KPCM on AV Mobile Plant City, Plant City Municipal Airport 120.025 813-764-8259
KPMPFAA ID PMP, ASOS, KPMP 212253Z 33003KT 10SM SCT110 BKN190 23/20 A2994 RMK AO2 SLP139 T02330200 Follow KPMP on AV Mobile POMPANO BEACH AIRPARK 954-783-3720
K1J3ICAO ID K1J3 Ponce De Leon Inlet
KPGDFAA ID PGD, ASOS, KPGD 212337Z AUTO 21005KT 10SM SCT021 SCT032 24/21 A2994 RMK AO2 T02440211 Follow KPGD on AV Mobile PUNTA GORDA CHARLOTTE COUNTY 135.675 941-639-0076
K1J5ICAO ID K1J5 Santa Rosa Coast Guard Station
KSRQFAA ID SRQ, ASOS, KSRQ 212253Z AUTO 36003KT 10SM CLR 26/18 A2990 Follow KSRQ on AV Mobile SARASOTA/BRADENTON INTERNATIONAL . 124.375 941-359-0117
KSEFFAA ID SEF, AWOS-3 SEBRING 119.475 863-655-6424
KSGJFAA ID SGJ, AWOS-3, KSGJ 212258Z 00000KT 10SM CLR 24/19 A2992 RMK AO2 SLP132 T02390194 Follow KSGJ on AV Mobile St. Augustine, St. Augustine Airport 904-824-7084
KPIEFAA ID PIE, ASOS, KPIE 212253Z 34003KT 10SM FEW050 25/18 A2992 Follow KPIE on AV Mobile ST PETERSBURG/CLEARWATER 727-531-3456
KSPGFAA ID SPG, ASOS, KSPG 212253Z AUTO 35005KT 10SM CLR 27/18 A2991 RMK AO2 SLP127 T02670178 Follow KSPG on AV Mobile ST PETERSBURG WHITTED AIRPORT 118.875 727-821-4334
KSUAFAA ID SUA, AWOS-3, KSUA 212247Z 18005KT 7SM VCSH SCT020 BKN060 22/21 A2994 Follow KSUA on AV Mobile Stuart, Witham Field Airport 772-692-7399
KTLHFAA ID TLH, ASOS, KTLH 212253Z 33003KT 10SM FEW250 26/10 A2993 Follow KTLH on AV Mobile TALLAHASSEE REGIONAL AIRPORT 850-576-3665
KTBWICAO ID KTBW Tampa Bay Area
KMCFFAA ID MCF, KMCF 212258Z AUTO 35004KT 10SM CLR 25/20 A2992 RMK AO2 SLP135 T02470201 $ Follow KMCF on AV Mobile Macdill Air Force Base, Fl.
KTPAFAA ID TPA, ASOS, KTPA 212253Z VRB05KT 10SM OVC280 27/18 A2993 Follow KTPA on AV Mobile TAMPA INTERNATIONAL AIRPORT 813-873-7228
KTPFFAA ID TPF, AWOS-3, KTPF 131715Z AUTO 23004KT 10SM CLR 32/23 A3012 RMK AO2 Follow KTPF on AV Mobile Tampa, Peter O Knight Airport 118.925 813-251-6824
KVDFFAA ID VDF, AWOS-3, KVDF 212335Z AUTO 00000KT 10SM CLR 23/20 A2993 RMK AO2 Follow KVDF on AV Mobile Tampa, Vandenberg Airport 121.125 813-630-0924
KVLGICAO ID KVLG The Villages
KVVGICAO ID KVVG, KVVG 212335Z AUTO 00000KT 10SM 24/19 A2984 RMK A01 Follow KVVG on AV Mobile The Villages
KX68ICAO ID KX68 Titusville, NASA Shuttle Landing Facility
KTIXFAA ID TIX, KTIX 212247Z 04008KT 7SM BKN025 BKN100 24/21 A2992 Follow KTIX on AV Mobile Titusville
KX21FAA ID X21, AWOS-3 Titusville, Arthur Dunn Air Park 119.725 321-385-0383
KTTSFAA ID TTS, KTTS 212328Z AUTO 12004KT 10SM -RA FEW050 22/21 A2992 RMK AO2 Follow KTTS on AV Mobile Titusville, NASA Shuttle Landing Facility
KVPSFAA ID VPS, KVPS 212255Z 30001KT 10SM FEW250 23/14 A2994 RMK AO2A FU NE SLP145 T02340144 $ Follow KVPS on AV Mobile Valparaiso / Eglin Air Force Base
KVNCFAA ID VNC, AWOS-3, KVNC 212335Z AUTO 25/22 A2993 RMK AO2 TSNO Follow KVNC on AV Mobile VENICE 119.275
KX90ICAO ID KX90 Venice Long Range Navigation
KVRBFAA ID VRB, ASOS, KVRB 212253Z 18006KT 10SM FEW012 21/19 A2993 Follow KVRB on AV Mobile VERO BEACH MUNICIPAL AIRPORT 772-978-9535
F45FAA ID F45, AWOS-3, K2V5 220000Z AUTO 15009KT 10SM CLR 24/05 A2988 RMK AO2 LTG DSNT W T02350046 Follow  on AV Mobile WEST PALM BEACH 119.975 561-630-6932
KLNAFAA ID LNA, AWOS-3 WEST PALM BEACH 119.925 561-964-0308
KPBIFAA ID PBI, ASOS, KPBI 212253Z 17004KT 10SM FEW025 BKN100 BKN120 22/21 A2992 Follow KPBI on AV Mobile PALM BEACH INTERNATIONAL 123.75 561-683-2548
FD38FAA ID FD38, Belfort WELLINGTON AERO CLUB
X60FAA ID X60, AWOS-3, K2V5 220000Z AUTO 15009KT 10SM CLR 24/05 A2988 RMK AO2 LTG DSNT W T02350046 Follow  on AV Mobile WILLISTON 118.425 352-528-9949
KGIFFAA ID GIF, ASOS, KGIF 212253Z AUTO 00000KT 10SM CLR 25/19 A2993 RMK AO2 SLP134 T02500194 Follow KGIF on AV Mobile WINTER HAVENS GILBERT AIRPORT 133.675 863-956-2097
KZPHFAA ID ZPH, ASOS, KZPH 212335Z AUTO 00000KT CLR 22/19 A2994 RMK AO2 PWINO Follow KZPH on AV Mobile ZEPHYRHILLS 118.975 813-780-0031

Click on the AV Mobile icon AV Mobile icon by any station to follow that AWOS feed on AirportView.net Mobile.

Garmin aera 796 $1999 at Avionics Specialists LLC
Bose A20 Aviation Headsets $995 at Avionics Specialists LLC